sensor_id;sensor_type;location;lat;lon;timestamp;pressure;altitude;pressure_sealevel;temperature;humidity
4814;BME280;15375;48.540;9.268;2023-05-01T00:01:13;97239.81;;;10.15;100.00
4814;BME280;15375;48.540;9.268;2023-05-01T00:03:38;97241.38;;;10.16;100.00
4814;BME280;15375;48.540;9.268;2023-05-01T00:06:04;97261.56;;;10.18;100.00
4814;BME280;15375;48.540;9.268;2023-05-01T00:08:32;97232.31;;;9.99;100.00
4814;BME280;15375;48.540;9.268;2023-05-01T00:11:04;97270.53;;;10.19;100.00
4814;BME280;15375;48.540;9.268;2023-05-01T00:13:30;97197.88;;;9.62;100.00
4814;BME280;15375;48.540;9.268;2023-05-01T00:15:56;97201.09;;;9.57;100.00
4814;BME280;15375;48.540;9.268;2023-05-01T00:18:21;97222.88;;;9.81;100.00
4814;BME280;15375;48.540;9.268;2023-05-01T00:20:47;97163.91;;;9.47;100.00
4814;BME280;15375;48.540;9.268;2023-05-01T00:23:13;97223.34;;;9.76;100.00
4814;BME280;15375;48.540;9.268;2023-05-01T00:25:38;97215.00;;;9.63;100.00
4814;BME280;15375;48.540;9.268;2023-05-01T00:28:04;97222.66;;;9.72;100.00
4814;BME280;15375;48.540;9.268;2023-05-01T00:30:33;97232.69;;;9.75;100.00
4814;BME280;15375;48.540;9.268;2023-05-01T00:32:58;97229.75;;;9.89;100.00
4814;BME280;15375;48.540;9.268;2023-05-01T00:35:24;97196.88;;;9.53;100.00
4814;BME280;15375;48.540;9.268;2023-05-01T00:37:50;97218.03;;;9.69;100.00
4814;BME280;15375;48.540;9.268;2023-05-01T00:40:15;97211.19;;;9.57;100.00
4814;BME280;15375;48.540;9.268;2023-05-01T00:42:41;97225.84;;;9.67;100.00
4814;BME280;15375;48.540;9.268;2023-05-01T00:45:07;97203.50;;;9.52;100.00
4814;BME280;15375;48.540;9.268;2023-05-01T00:47:36;97231.38;;;9.59;100.00
4814;BME280;15375;48.540;9.268;2023-05-01T00:50:02;97211.00;;;9.44;100.00
4814;BME280;15375;48.540;9.268;2023-05-01T00:52:28;97224.41;;;9.58;100.00
4814;BME280;15375;48.540;9.268;2023-05-01T00:54:53;97210.38;;;9.60;100.00
4814;BME280;15375;48.540;9.268;2023-05-01T00:57:20;97214.56;;;9.64;100.00
4814;BME280;15375;48.540;9.268;2023-05-01T00:59:46;97210.69;;;9.66;100.00
4814;BME280;15375;48.540;9.268;2023-05-01T01:02:15;97167.69;;;9.30;100.00
4814;BME280;15375;48.540;9.268;2023-05-01T01:04:44;97211.00;;;9.71;100.00
4814;BME280;15375;48.540;9.268;2023-05-01T01:13:19;97199.84;;;9.85;100.00
4814;BME280;15375;48.540;9.268;2023-05-01T01:16:11;97187.47;;;9.81;100.00
4814;BME280;15375;48.540;9.268;2023-05-01T01:21:21;97183.94;;;9.84;100.00
4814;BME280;15375;48.540;9.268;2023-05-01T01:24:15;97183.19;;;9.80;100.00
4814;BME280;15375;48.540;9.268;2023-05-01T01:27:12;97186.41;;;9.75;100.00
4814;BME280;15375;48.540;9.268;2023-05-01T01:29:55;97167.94;;;9.62;100.00
4814;BME280;15375;48.540;9.268;2023-05-01T01:35:19;97180.78;;;9.62;100.00
4814;BME280;15375;48.540;9.268;2023-05-01T01:38:09;97178.53;;;9.57;100.00
4814;BME280;15375;48.540;9.268;2023-05-01T01:40:48;97184.81;;;9.54;100.00
4814;BME280;15375;48.540;9.268;2023-05-01T01:43:17;97166.97;;;9.49;100.00
4814;BME280;15375;48.540;9.268;2023-05-01T01:45:52;97178.44;;;9.64;100.00
4814;BME280;15375;48.540;9.268;2023-05-01T01:48:22;97164.88;;;9.60;100.00
4814;BME280;15375;48.540;9.268;2023-05-01T01:50:49;97153.66;;;9.55;100.00
4814;BME280;15375;48.540;9.268;2023-05-01T01:53:17;97152.91;;;9.54;100.00
4814;BME280;15375;48.540;9.268;2023-05-01T01:55:44;97145.28;;;9.46;100.00
4814;BME280;15375;48.540;9.268;2023-05-01T01:58:12;97163.91;;;9.47;100.00
4814;BME280;15375;48.540;9.268;2023-05-01T02:00:40;97085.53;;;8.89;100.00
4814;BME280;15375;48.540;9.268;2023-05-01T02:03:09;97163.59;;;9.42;100.00
4814;BME280;15375;48.540;9.268;2023-05-01T02:05:35;97130.06;;;9.25;100.00
4814;BME280;15375;48.540;9.268;2023-05-01T02:08:03;97163.50;;;9.49;100.00
4814;BME280;15375;48.540;9.268;2023-05-01T02:10:29;97138.63;;;9.47;100.00
4814;BME280;15375;48.540;9.268;2023-05-01T02:12:56;97150.34;;;9.67;100.00
4814;BME280;15375;48.540;9.268;2023-05-01T02:15:23;97153.16;;;9.63;100.00
4814;BME280;15375;48.540;9.268;2023-05-01T02:17:51;97151.84;;;9.48;100.00
4814;BME280;15375;48.540;9.268;2023-05-01T02:20:17;97140.19;;;9.48;100.00
4814;BME280;15375;48.540;9.268;2023-05-01T02:22:44;97119.69;;;9.40;100.00
4814;BME280;15375;48.540;9.268;2023-05-01T02:25:12;97148.06;;;9.66;100.00
4814;BME280;15375;48.540;9.268;2023-05-01T02:27:42;97142.72;;;9.58;100.00
4814;BME280;15375;48.540;9.268;2023-05-01T02:30:10;97138.94;;;9.52;100.00
4814;BME280;15375;48.540;9.268;2023-05-01T02:32:35;97136.69;;;9.47;100.00
4814;BME280;15375;48.540;9.268;2023-05-01T02:35:01;97143.69;;;9.48;100.00
4814;BME280;15375;48.540;9.268;2023-05-01T02:37:27;97119.00;;;9.36;100.00
4814;BME280;15375;48.540;9.268;2023-05-01T02:39:55;97142.47;;;9.49;100.00
4814;BME280;15375;48.540;9.268;2023-05-01T02:42:23;97122.78;;;9.42;100.00
4814;BME280;15375;48.540;9.268;2023-05-01T02:45:09;97142.84;;;9.51;100.00
4814;BME280;15375;48.540;9.268;2023-05-01T02:47:37;97109.00;;;9.29;100.00
4814;BME280;15375;48.540;9.268;2023-05-01T02:50:04;97115.03;;;9.40;100.00
4814;BME280;15375;48.540;9.268;2023-05-01T02:52:30;97129.50;;;9.57;100.00
4814;BME280;15375;48.540;9.268;2023-05-01T02:54:56;97127.16;;;9.59;100.00
4814;BME280;15375;48.540;9.268;2023-05-01T02:57:22;97096.97;;;9.50;100.00
4814;BME280;15375;48.540;9.268;2023-05-01T02:59:47;97138.03;;;9.82;100.00
4814;BME280;15375;48.540;9.268;2023-05-01T03:02:13;97108.47;;;9.61;100.00
4814;BME280;15375;48.540;9.268;2023-05-01T03:04:40;97135.66;;;9.84;100.00
4814;BME280;15375;48.540;9.268;2023-05-01T03:07:06;97096.78;;;9.60;100.00
4814;BME280;15375;48.540;9.268;2023-05-01T03:09:31;97121.81;;;9.75;100.00
4814;BME280;15375;48.540;9.268;2023-05-01T03:11:56;97116.16;;;9.66;100.00
4814;BME280;15375;48.540;9.268;2023-05-01T03:14:22;97096.97;;;9.50;100.00
4814;BME280;15375;48.540;9.268;2023-05-01T03:16:47;97114.25;;;9.63;100.00
4814;BME280;15375;48.540;9.268;2023-05-01T03:19:13;97107.34;;;9.58;100.00
4814;BME280;15375;48.540;9.268;2023-05-01T03:21:38;97100.00;;;9.55;100.00
4814;BME280;15375;48.540;9.268;2023-05-01T03:24:04;97112.34;;;9.60;100.00
4814;BME280;15375;48.540;9.268;2023-05-01T03:26:29;97111.00;;;9.48;100.00
4814;BME280;15375;48.540;9.268;2023-05-01T03:28:55;97105.97;;;9.47;100.00
4814;BME280;15375;48.540;9.268;2023-05-01T03:31:20;97107.72;;;9.57;100.00
4814;BME280;15375;48.540;9.268;2023-05-01T03:33:46;97093.78;;;9.55;100.00
4814;BME280;15375;48.540;9.268;2023-05-01T03:36:12;97106.78;;;9.67;100.00
4814;BME280;15375;48.540;9.268;2023-05-01T03:38:38;97110.91;;;9.75;100.00
4814;BME280;15375;48.540;9.268;2023-05-01T03:41:03;97103.53;;;9.76;100.00
4814;BME280;15375;48.540;9.268;2023-05-01T03:43:29;97108.47;;;9.81;100.00
4814;BME280;15375;48.540;9.268;2023-05-01T03:45:56;97089.25;;;9.68;100.00
4814;BME280;15375;48.540;9.268;2023-05-01T03:48:21;97072.63;;;9.62;100.00
4814;BME280;15375;48.540;9.268;2023-05-01T03:50:47;97090.38;;;9.71;100.00
4814;BME280;15375;48.540;9.268;2023-05-01T03:53:12;97095.84;;;9.71;100.00
4814;BME280;15375;48.540;9.268;2023-05-01T03:55:38;97111.25;;;9.77;100.00
4814;BME280;15375;48.540;9.268;2023-05-01T03:58:04;97089.75;;;9.63;100.00
4814;BME280;15375;48.540;9.268;2023-05-01T04:00:31;97091.69;;;9.62;100.00
4814;BME280;15375;48.540;9.268;2023-05-01T04:02:57;97027.47;;;9.22;100.00
4814;BME280;15375;48.540;9.268;2023-05-01T04:05:22;97062.06;;;9.45;100.00
4814;BME280;15375;48.540;9.268;2023-05-01T04:07:48;97108.84;;;9.83;100.00
4814;BME280;15375;48.540;9.268;2023-05-01T04:10:13;97089.22;;;9.72;100.00
4814;BME280;15375;48.540;9.268;2023-05-01T04:12:39;97082.06;;;9.58;100.00
4814;BME280;15375;48.540;9.268;2023-05-01T04:15:05;97099.38;;;9.68;100.00
4814;BME280;15375;48.540;9.268;2023-05-01T04:17:31;97112.75;;;9.82;100.00
4814;BME280;15375;48.540;9.268;2023-05-01T04:19:57;97105.06;;;9.77;100.00
4814;BME280;15375;48.540;9.268;2023-05-01T04:22:22;97095.84;;;9.71;100.00
4814;BME280;15375;48.540;9.268;2023-05-01T04:24:48;97115.06;;;9.83;100.00
4814;BME280;15375;48.540;9.268;2023-05-01T04:27:13;97075.66;;;9.68;100.00
4814;BME280;15375;48.540;9.268;2023-05-01T04:29:39;97108.78;;;9.86;100.00
4814;BME280;15375;48.540;9.268;2023-05-01T04:32:06;97116.66;;;9.81;100.00
4814;BME280;15375;48.540;9.268;2023-05-01T04:34:31;97099.69;;;9.73;100.00
4814;BME280;15375;48.540;9.268;2023-05-01T04:36:57;97082.66;;;9.46;100.00
4814;BME280;15375;48.540;9.268;2023-05-01T04:39:22;97107.22;;;9.42;100.00
4814;BME280;15375;48.540;9.268;2023-05-01T04:41:48;97098.69;;;9.40;100.00
4814;BME280;15375;48.540;9.268;2023-05-01T04:44:13;97097.16;;;9.39;100.00
4814;BME280;15375;48.540;9.268;2023-05-01T04:46:39;97103.53;;;9.52;100.00
4814;BME280;15375;48.540;9.268;2023-05-01T04:49:04;97088.41;;;9.51;100.00
4814;BME280;15375;48.540;9.268;2023-05-01T04:51:29;97105.56;;;9.72;100.00
4814;BME280;15375;48.540;9.268;2023-05-01T04:53:55;97113.63;;;9.75;100.00
4814;BME280;15375;48.540;9.268;2023-05-01T04:56:20;97072.06;;;9.51;100.00
4814;BME280;15375;48.540;9.268;2023-05-01T04:58:46;97069.69;;;9.53;100.00
4814;BME280;15375;48.540;9.268;2023-05-01T05:01:11;97118.47;;;9.87;100.00
4814;BME280;15375;48.540;9.268;2023-05-01T05:03:37;97109.75;;;9.76;100.00
4814;BME280;15375;48.540;9.268;2023-05-01T05:06:02;97091.28;;;9.64;100.00
4814;BME280;15375;48.540;9.268;2023-05-01T05:08:28;97083.78;;;9.48;100.00
4814;BME280;15375;48.540;9.268;2023-05-01T05:10:57;97105.78;;;9.57;100.00
4814;BME280;15375;48.540;9.268;2023-05-01T05:13:24;97117.13;;;9.76;100.00
4814;BME280;15375;48.540;9.268;2023-05-01T05:15:50;97110.63;;;9.70;100.00
4814;BME280;15375;48.540;9.268;2023-05-01T05:18:15;97108.28;;;9.72;100.00
4814;BME280;15375;48.540;9.268;2023-05-01T05:20:40;97115.84;;;9.84;100.00
4814;BME280;15375;48.540;9.268;2023-05-01T05:23:06;97131.13;;;9.97;100.00
4814;BME280;15375;48.540;9.268;2023-05-01T05:25:31;97102.25;;;9.80;100.00
4814;BME280;15375;48.540;9.268;2023-05-01T05:27:57;97123.88;;;9.91;100.00
4814;BME280;15375;48.540;9.268;2023-05-01T05:30:25;97124.97;;;9.93;100.00
4814;BME280;15375;48.540;9.268;2023-05-01T05:32:50;97114.72;;;9.81;100.00
4814;BME280;15375;48.540;9.268;2023-05-01T05:35:15;97111.63;;;9.79;100.00
4814;BME280;15375;48.540;9.268;2023-05-01T05:37:41;97106.72;;;9.71;100.00
4814;BME280;15375;48.540;9.268;2023-05-01T05:40:07;97121.75;;;9.79;100.00
4814;BME280;15375;48.540;9.268;2023-05-01T05:42:33;97114.06;;;9.74;100.00
4814;BME280;15375;48.540;9.268;2023-05-01T05:44:58;97129.25;;;9.94;100.00
4814;BME280;15375;48.540;9.268;2023-05-01T05:47:24;97128.88;;;9.92;100.00
4814;BME280;15375;48.540;9.268;2023-05-01T05:49:50;97134.22;;;9.99;100.00
4814;BME280;15375;48.540;9.268;2023-05-01T05:52:15;97121.81;;;9.95;100.00
4814;BME280;15375;48.540;9.268;2023-05-01T05:54:41;97126.06;;;9.99;100.00
4814;BME280;15375;48.540;9.268;2023-05-01T05:57:07;97124.00;;;10.03;100.00
4814;BME280;15375;48.540;9.268;2023-05-01T05:59:32;97134.00;;;10.10;100.00
4814;BME280;15375;48.540;9.268;2023-05-01T06:01:57;97106.75;;;9.90;100.00
4814;BME280;15375;48.540;9.268;2023-05-01T06:04:23;97130.25;;;10.04;100.00
4814;BME280;15375;48.540;9.268;2023-05-01T06:06:48;97133.75;;;10.24;100.00
4814;BME280;15375;48.540;9.268;2023-05-01T06:09:14;97112.50;;;10.15;100.00
4814;BME280;15375;48.540;9.268;2023-05-01T06:11:40;97130.75;;;10.38;100.00
4814;BME280;15375;48.540;9.268;2023-05-01T06:14:05;97133.47;;;10.38;100.00
4814;BME280;15375;48.540;9.268;2023-05-01T06:16:31;97106.41;;;10.08;100.00
4814;BME280;15375;48.540;9.268;2023-05-01T06:18:58;97124.03;;;10.23;100.00
4814;BME280;15375;48.540;9.268;2023-05-01T06:21:23;97114.56;;;10.08;100.00
4814;BME280;15375;48.540;9.268;2023-05-01T06:23:49;97123.09;;;10.10;100.00
4814;BME280;15375;48.540;9.268;2023-05-01T06:26:14;97136.50;;;10.24;100.00
4814;BME280;15375;48.540;9.268;2023-05-01T06:28:40;97130.56;;;10.29;100.00
4814;BME280;15375;48.540;9.268;2023-05-01T06:31:05;97135.28;;;10.25;100.00
4814;BME280;15375;48.540;9.268;2023-05-01T06:33:31;97106.13;;;10.02;100.00
4814;BME280;15375;48.540;9.268;2023-05-01T06:35:56;97126.44;;;10.21;100.00
4814;BME280;15375;48.540;9.268;2023-05-01T06:38:25;97123.84;;;10.14;100.00
4814;BME280;15375;48.540;9.268;2023-05-01T06:40:50;97129.16;;;10.21;100.00
4814;BME280;15375;48.540;9.268;2023-05-01T06:43:15;97114.19;;;10.29;100.00
4814;BME280;15375;48.540;9.268;2023-05-01T06:45:41;97122.56;;;10.38;100.00
4814;BME280;15375;48.540;9.268;2023-05-01T06:48:06;97143.94;;;10.59;100.00
4814;BME280;15375;48.540;9.268;2023-05-01T06:50:32;97137.84;;;10.71;100.00
4814;BME280;15375;48.540;9.268;2023-05-01T06:52:57;97129.50;;;10.78;100.00
4814;BME280;15375;48.540;9.268;2023-05-01T06:55:25;97141.97;;;10.96;100.00
4814;BME280;15375;48.540;9.268;2023-05-01T06:57:51;97132.53;;;11.16;100.00
4814;BME280;15375;48.540;9.268;2023-05-01T07:00:16;97123.22;;;11.14;100.00
4814;BME280;15375;48.540;9.268;2023-05-01T07:02:43;97128.28;;;11.31;100.00
4814;BME280;15375;48.540;9.268;2023-05-01T07:05:09;97129.13;;;11.44;100.00
4814;BME280;15375;48.540;9.268;2023-05-01T07:07:34;97152.44;;;11.65;100.00
4814;BME280;15375;48.540;9.268;2023-05-01T07:10:00;97122.38;;;11.49;100.00
4814;BME280;15375;48.540;9.268;2023-05-01T07:12:26;97133.81;;;11.44;100.00
4814;BME280;15375;48.540;9.268;2023-05-01T07:14:51;97127.50;;;11.31;100.00
4814;BME280;15375;48.540;9.268;2023-05-01T07:17:17;97134.91;;;11.30;100.00
4814;BME280;15375;48.540;9.268;2023-05-01T07:19:42;97147.47;;;11.44;100.00
4814;BME280;15375;48.540;9.268;2023-05-01T07:22:07;97159.06;;;11.48;100.00
4814;BME280;15375;48.540;9.268;2023-05-01T07:24:33;97137.66;;;11.30;100.00
4814;BME280;15375;48.540;9.268;2023-05-01T07:26:58;97135.88;;;11.40;100.00
4814;BME280;15375;48.540;9.268;2023-05-01T07:29:24;97119.66;;;11.33;100.00
4814;BME280;15375;48.540;9.268;2023-05-01T07:31:49;97130.31;;;11.43;100.00
4814;BME280;15375;48.540;9.268;2023-05-01T07:34:14;97137.66;;;11.46;100.00
4814;BME280;15375;48.540;9.268;2023-05-01T07:36:42;97139.44;;;11.53;100.00
4814;BME280;15375;48.540;9.268;2023-05-01T07:39:07;97137.91;;;11.52;100.00
4814;BME280;15375;48.540;9.268;2023-05-01T07:41:33;97134.41;;;11.68;100.00
4814;BME280;15375;48.540;9.268;2023-05-01T07:43:58;97157.63;;;11.76;100.00
4814;BME280;15375;48.540;9.268;2023-05-01T07:46:24;97141.16;;;11.47;100.00
4814;BME280;15375;48.540;9.268;2023-05-01T07:48:49;97133.91;;;11.57;100.00
4814;BME280;15375;48.540;9.268;2023-05-01T07:51:15;97139.03;;;11.71;100.00
4814;BME280;15375;48.540;9.268;2023-05-01T07:53:40;97143.97;;;11.76;100.00
4814;BME280;15375;48.540;9.268;2023-05-01T07:56:07;97134.91;;;11.79;100.00
4814;BME280;15375;48.540;9.268;2023-05-01T07:58:33;97159.00;;;11.84;100.00
4814;BME280;15375;48.540;9.268;2023-05-01T08:01:00;97136.53;;;11.76;100.00
4814;BME280;15375;48.540;9.268;2023-05-01T08:03:27;97152.84;;;11.80;100.00
4814;BME280;15375;48.540;9.268;2023-05-01T08:05:53;97135.03;;;11.75;100.00
4814;BME280;15375;48.540;9.268;2023-05-01T08:08:19;97124.44;;;11.77;100.00
4814;BME280;15375;48.540;9.268;2023-05-01T08:10:45;97131.25;;;11.69;100.00
4814;BME280;15375;48.540;9.268;2023-05-01T08:13:11;97136.72;;;11.69;100.00
4814;BME280;15375;48.540;9.268;2023-05-01T08:15:36;97145.66;;;11.53;100.00
4814;BME280;15375;48.540;9.268;2023-05-01T08:18:03;97127.06;;;11.48;100.00
4814;BME280;15375;48.540;9.268;2023-05-01T08:20:29;97138.16;;;11.74;100.00
4814;BME280;15375;48.540;9.268;2023-05-01T08:22:54;97131.91;;;11.89;100.00
4814;BME280;15375;48.540;9.268;2023-05-01T08:25:20;97090.09;;;11.76;100.00
4814;BME280;15375;48.540;9.268;2023-05-01T08:27:45;97151.84;;;12.31;100.00
4814;BME280;15375;48.540;9.268;2023-05-01T08:30:11;97121.78;;;12.31;100.00
4814;BME280;15375;48.540;9.268;2023-05-01T08:32:36;97138.47;;;12.49;100.00
4814;BME280;15375;48.540;9.268;2023-05-01T08:35:01;97115.81;;;12.49;100.00
4814;BME280;15375;48.540;9.268;2023-05-01T08:37:27;97131.16;;;12.71;100.00
4814;BME280;15375;48.540;9.268;2023-05-01T08:39:52;97112.75;;;12.59;100.00
4814;BME280;15375;48.540;9.268;2023-05-01T08:42:18;97144.31;;;13.02;100.00
4814;BME280;15375;48.540;9.268;2023-05-01T08:44:45;97135.03;;;13.12;100.00
4814;BME280;15375;48.540;9.268;2023-05-01T08:47:16;97137.91;;;13.21;100.00
4814;BME280;15375;48.540;9.268;2023-05-01T08:49:45;97140.63;;;13.33;100.00
4814;BME280;15375;48.540;9.268;2023-05-01T08:52:13;97136.13;;;13.27;100.00
4814;BME280;15375;48.540;9.268;2023-05-01T08:54:43;97137.13;;;13.20;100.00
4814;BME280;15375;48.540;9.268;2023-05-01T08:57:10;97131.59;;;13.58;100.00
4814;BME280;15375;48.540;9.268;2023-05-01T08:59:37;97121.03;;;13.82;100.00
4814;BME280;15375;48.540;9.268;2023-05-01T09:02:06;97133.69;;;14.01;100.00
4814;BME280;15375;48.540;9.268;2023-05-01T09:04:34;97118.16;;;14.20;100.00
4814;BME280;15375;48.540;9.268;2023-05-01T09:07:00;97104.81;;;14.09;98.50
4814;BME280;15375;48.540;9.268;2023-05-01T09:09:29;97116.91;;;14.21;99.72
4814;BME280;15375;48.540;9.268;2023-05-01T09:12:24;97113.91;;;14.28;95.75
4814;BME280;15375;48.540;9.268;2023-05-01T09:14:51;97119.47;;;14.58;98.13
4814;BME280;15375;48.540;9.268;2023-05-01T09:17:16;97132.72;;;15.12;99.71
4814;BME280;15375;48.540;9.268;2023-05-01T09:19:42;97117.09;;;15.40;93.01
4814;BME280;15375;48.540;9.268;2023-05-01T09:22:11;97103.16;;;15.25;91.26
4814;BME280;15375;48.540;9.268;2023-05-01T09:24:36;97110.34;;;15.23;85.86
4814;BME280;15375;48.540;9.268;2023-05-01T09:27:02;97100.56;;;15.22;87.34
4814;BME280;15375;48.540;9.268;2023-05-01T09:29:46;97124.09;;;15.32;86.76
4814;BME280;15375;48.540;9.268;2023-05-01T09:32:16;97123.56;;;15.64;85.65
4814;BME280;15375;48.540;9.268;2023-05-01T09:34:43;97120.25;;;15.87;85.93
4814;BME280;15375;48.540;9.268;2023-05-01T09:37:11;97098.72;;;15.95;85.75
4814;BME280;15375;48.540;9.268;2023-05-01T09:39:37;97112.63;;;16.28;82.94
4814;BME280;15375;48.540;9.268;2023-05-01T09:42:03;97100.41;;;15.92;80.44
4814;BME280;15375;48.540;9.268;2023-05-01T09:44:29;97110.78;;;16.07;81.50
4814;BME280;15375;48.540;9.268;2023-05-01T09:46:54;97121.44;;;16.50;83.89
4814;BME280;15375;48.540;9.268;2023-05-01T09:49:43;97116.84;;;16.65;84.40
4814;BME280;15375;48.540;9.268;2023-05-01T09:52:10;97101.50;;;16.91;82.80
4814;BME280;15375;48.540;9.268;2023-05-01T09:54:35;97093.34;;;17.30;80.12
4814;BME280;15375;48.540;9.268;2023-05-01T09:57:01;97101.19;;;17.55;77.74
4814;BME280;15375;48.540;9.268;2023-05-01T09:59:28;97094.44;;;18.18;77.16
4814;BME280;15375;48.540;9.268;2023-05-01T10:01:55;97086.47;;;17.58;79.50
4814;BME280;15375;48.540;9.268;2023-05-01T10:04:31;97094.31;;;17.98;73.56
4814;BME280;15375;48.540;9.268;2023-05-01T10:06:57;97085.47;;;18.46;72.01
4814;BME280;15375;48.540;9.268;2023-05-01T10:09:29;97091.16;;;18.43;73.34
4814;BME280;15375;48.540;9.268;2023-05-01T10:11:55;97092.91;;;18.55;70.23
4814;BME280;15375;48.540;9.268;2023-05-01T10:14:22;97074.69;;;17.96;69.12
4814;BME280;15375;48.540;9.268;2023-05-01T10:16:48;97089.38;;;18.55;71.47
4814;BME280;15375;48.540;9.268;2023-05-01T10:19:15;97100.84;;;18.24;73.97
4814;BME280;15375;48.540;9.268;2023-05-01T10:21:41;97074.84;;;18.30;69.19
4814;BME280;15375;48.540;9.268;2023-05-01T10:24:06;97100.59;;;18.51;68.00
4814;BME280;15375;48.540;9.268;2023-05-01T10:26:34;97075.66;;;18.75;67.30
4814;BME280;15375;48.540;9.268;2023-05-01T10:29:00;97094.81;;;18.93;67.98
4814;BME280;15375;48.540;9.268;2023-05-01T10:31:26;97068.94;;;18.96;66.28
4814;BME280;15375;48.540;9.268;2023-05-01T10:33:53;97085.53;;;18.96;64.10
4814;BME280;15375;48.540;9.268;2023-05-01T10:36:43;97095.78;;;18.75;65.46
4814;BME280;15375;48.540;9.268;2023-05-01T10:39:33;97098.53;;;18.75;65.95
4814;BME280;15375;48.540;9.268;2023-05-01T10:42:08;97102.91;;;18.53;67.99
4814;BME280;15375;48.540;9.268;2023-05-01T10:44:40;97103.63;;;18.38;69.98
4814;BME280;15375;48.540;9.268;2023-05-01T10:50:06;97102.69;;;18.03;70.94
4814;BME280;15375;48.540;9.268;2023-05-01T10:53:34;97095.97;;;18.19;69.37
4814;BME280;15375;48.540;9.268;2023-05-01T10:55:41;97092.81;;;17.73;70.46
4814;BME280;15375;48.540;9.268;2023-05-01T10:58:08;97090.84;;;17.88;68.52
4814;BME280;15375;48.540;9.268;2023-05-01T11:00:33;97091.66;;;18.03;71.01
4814;BME280;15375;48.540;9.268;2023-05-01T11:08:35;97090.50;;;17.95;66.73
4814;BME280;15375;48.540;9.268;2023-05-01T11:14:01;97090.28;;;18.22;66.31
4814;BME280;15375;48.540;9.268;2023-05-01T11:19:02;97057.75;;;17.41;68.03
4814;BME280;15375;48.540;9.268;2023-05-01T11:21:31;97090.78;;;17.59;69.10
4814;BME280;15375;48.540;9.268;2023-05-01T11:23:58;97098.16;;;17.53;69.61
4814;BME280;15375;48.540;9.268;2023-05-01T11:26:24;97087.41;;;17.22;73.43
4814;BME280;15375;48.540;9.268;2023-05-01T11:28:53;97087.03;;;17.38;74.95
4814;BME280;15375;48.540;9.268;2023-05-01T11:31:19;97089.94;;;17.35;76.40
4814;BME280;15375;48.540;9.268;2023-05-01T11:33:45;97098.00;;;17.14;77.49
4814;BME280;15375;48.540;9.268;2023-05-01T11:36:11;97095.84;;;16.77;81.10
4814;BME280;15375;48.540;9.268;2023-05-01T11:38:36;97084.84;;;16.77;81.77
4814;BME280;15375;48.540;9.268;2023-05-01T11:41:03;97101.50;;;16.91;85.20
4814;BME280;15375;48.540;9.268;2023-05-01T11:43:29;97099.13;;;16.66;87.31
4814;BME280;15375;48.540;9.268;2023-05-01T11:45:56;97113.34;;;16.74;85.39
4814;BME280;15375;48.540;9.268;2023-05-01T11:48:27;97107.44;;;16.90;86.86
4814;BME280;15375;48.540;9.268;2023-05-01T11:50:53;97093.53;;;16.93;84.94
4814;BME280;15375;48.540;9.268;2023-05-01T11:53:19;97100.09;;;17.29;84.29
4814;BME280;15375;48.540;9.268;2023-05-01T11:55:45;97083.75;;;17.49;81.08
4814;BME280;15375;48.540;9.268;2023-05-01T11:58:11;97075.63;;;17.54;76.81
4814;BME280;15375;48.540;9.268;2023-05-01T12:00:41;97074.78;;;17.39;76.70
4814;BME280;15375;48.540;9.268;2023-05-01T12:03:11;97067.13;;;17.67;74.67
4814;BME280;15375;48.540;9.268;2023-05-01T12:05:41;97088.84;;;17.41;74.96
4814;BME280;15375;48.540;9.268;2023-05-01T12:08:08;97079.22;;;17.37;72.95
4814;BME280;15375;48.540;9.268;2023-05-01T12:10:34;97065.19;;;17.26;73.96
4814;BME280;15375;48.540;9.268;2023-05-01T12:13:01;97069.88;;;17.10;75.33
4814;BME280;15375;48.540;9.268;2023-05-01T12:15:27;97065.63;;;17.33;73.49
4814;BME280;15375;48.540;9.268;2023-05-01T12:17:53;97068.25;;;17.75;71.98
4814;BME280;15375;48.540;9.268;2023-05-01T12:20:39;97068.38;;;17.80;71.76
4814;BME280;15375;48.540;9.268;2023-05-01T12:23:06;97057.47;;;17.86;73.51
4814;BME280;15375;48.540;9.268;2023-05-01T12:25:33;97069.94;;;17.96;72.97
4814;BME280;15375;48.540;9.268;2023-05-01T12:28:07;97067.47;;;17.98;72.40
4814;BME280;15375;48.540;9.268;2023-05-01T12:30:34;97059.41;;;17.71;71.96
4814;BME280;15375;48.540;9.268;2023-05-01T12:33:07;97047.00;;;17.90;70.44
4814;BME280;15375;48.540;9.268;2023-05-01T12:35:33;97060.53;;;18.03;71.55
4814;BME280;15375;48.540;9.268;2023-05-01T12:37:59;97056.00;;;18.14;67.88
4814;BME280;15375;48.540;9.268;2023-05-01T12:40:25;97057.16;;;18.22;67.69
4814;BME280;15375;48.540;9.268;2023-05-01T12:42:57;97037.34;;;18.09;70.42
4814;BME280;15375;48.540;9.268;2023-05-01T12:45:23;97053.31;;;18.05;68.14
4814;BME280;15375;48.540;9.268;2023-05-01T12:47:49;97053.88;;;18.48;64.89
4814;BME280;15375;48.540;9.268;2023-05-01T12:50:15;97045.06;;;18.93;64.19
4814;BME280;15375;48.540;9.268;2023-05-01T12:52:40;97055.44;;;19.33;61.39
4814;BME280;15375;48.540;9.268;2023-05-01T12:55:06;97037.75;;;18.61;59.80
4814;BME280;15375;48.540;9.268;2023-05-01T12:57:33;97035.59;;;19.34;58.11
4814;BME280;15375;48.540;9.268;2023-05-01T13:00:01;97034.16;;;19.79;56.51
4814;BME280;15375;48.540;9.268;2023-05-01T13:02:33;97042.94;;;19.98;58.27
4814;BME280;15375;48.540;9.268;2023-05-01T13:05:06;97049.59;;;19.86;57.56
4814;BME280;15375;48.540;9.268;2023-05-01T13:07:31;97015.97;;;19.93;54.70
4814;BME280;15375;48.540;9.268;2023-05-01T13:09:58;97041.38;;;19.91;57.64
4814;BME280;15375;48.540;9.268;2023-05-01T13:12:25;97016.03;;;19.98;54.01
4814;BME280;15375;48.540;9.268;2023-05-01T13:14:51;97040.41;;;20.20;58.78
4814;BME280;15375;48.540;9.268;2023-05-01T13:17:25;97037.16;;;20.21;61.38
4814;BME280;15375;48.540;9.268;2023-05-01T13:19:57;97033.34;;;19.53;56.52
4814;BME280;15375;48.540;9.268;2023-05-01T13:22:31;97029.47;;;18.75;58.74
4814;BME280;15375;48.540;9.268;2023-05-01T13:24:57;97021.66;;;18.44;58.64
4814;BME280;15375;48.540;9.268;2023-05-01T13:27:22;97019.88;;;17.74;59.98
4814;BME280;15375;48.540;9.268;2023-05-01T13:29:55;97009.25;;;18.11;57.63
4814;BME280;15375;48.540;9.268;2023-05-01T13:32:22;97007.72;;;17.95;59.98
4814;BME280;15375;48.540;9.268;2023-05-01T13:34:48;96995.06;;;18.18;58.02